Date,TemperatureHighF,TemperatureAvgF,TemperatureLowF,DewpointHighF,DewpointAvgF,DewpointLowF,HumidityHigh,HumidityAvg,HumidityLow,PressureMaxIn,PressureMinIn,WindSpeedMaxMPH,WindSpeedAvgMPH,GustSpeedMaxMPH,PrecipitationSumIn
2013-2-1,45.5,36.8,28.6,34.0,27.4,22.4,80,69,52,30.09,29.87,10,2,10,0.00
2013-2-2,50.0,35.8,24.1,31.3,23.8,17.3,79,63,39,30.17,30.04,13,3,13,0.00
2013-2-3,52.2,37.2,28.6,28.7,22.9,20.2,70,57,29,30.04,29.79,11,3,11,0.00
2013-2-4,51.8,39.9,30.4,27.6,24.3,20.9,70,55,34,29.81,29.68,16,3,16,0.00
2013-2-5,51.3,40.2,30.8,33.3,26.7,21.8,71,59,47,29.83,29.64,8,2,8,0.00
2013-2-6,50.2,37.6,27.7,27.5,21.0,16.0,74,53,30,29.96,29.65,11,2,11,0.00
2013-2-7,45.0,32.5,21.6,25.7,20.7,15.2,79,63,43,29.98,29.79,5,1,5,0.00
2013-2-8,44.8,33.1,25.0,25.6,21.4,17.4,75,63,42,29.84,29.75,5,1,5,0.00
2013-2-9,41.6,31.5,19.6,29.3,22.2,14.3,85,69,51,29.80,29.67,7,1,7,0.00
2013-2-10,31.5,26.6,15.5,26.1,19.8,9.6,87,76,60,30.02,29.80,10,2,10,0.00
2013-2-11,34.4,20.9,8.8,19.8,11.7,3.5,81,68,51,30.00,29.82,12,4,12,0.00
2013-2-12,43.6,29.4,18.9,24.3,15.6,9.0,66,57,45,29.95,29.77,12,4,12,0.00
2013-2-13,48.6,34.9,28.4,32.6,23.1,15.0,86,63,39,30.02,29.75,17,4,17,0.00
2013-2-14,35.6,29.8,25.9,24.3,19.4,16.7,83,66,46,30.20,30.02,13,3,13,0.00
2013-2-15,44.3,31.7,24.1,30.8,23.4,19.4,84,72,52,30.23,30.01,10,2,10,0.00
2013-2-16,52.2,37.1,26.8,29.4,22.9,18.2,72,58,39,30.02,29.63,12,4,12,0.00
2013-2-17,45.2,36.4,30.2,27.9,23.0,18.6,72,59,35,29.86,29.55,13,4,13,0.00
2013-2-18,40.0,29.1,21.1,24.4,19.3,12.8,81,67,52,30.00,29.86,9,1,9,0.00
2013-2-19,31.5,20.9,12.6,20.5,13.2,6.7,92,72,59,29.91,29.67,6,1,6,0.00
2013-2-20,31.7,24.0,16.0,21.2,15.5,10.6,99,70,55,29.80,29.69,6,1,6,0.00
2013-2-21,41.4,29.5,20.9,28.1,20.4,14.5,86,70,47,29.85,29.76,5,1,5,0.00
2013-2-22,43.0,38.5,34.9,14.7,7.6,-12.7,37,28,9,29.67,29.61,11,3,11,0.00
2013-2-24,70.2,69.8,63.7,49.8,45.9,43.9,56,43,39,29.92,29.90,5,2,5,0.00
2013-2-25,71.8,64.7,37.4,45.6,38.4,16.8,51,38,27,29.90,29.67,12,4,12,0.00
2013-2-26,45.7,37.3,27.5,21.3,17.4,14.9,62,45,31,30.10,29.78,14,3,14,0.00
2013-2-27,48.1,33.3,22.7,23.4,17.4,14.0,72,54,30,30.11,30.01,10,2,10,0.00
2013-2-28,50.0,37.5,27.7,24.2,17.6,14.5,58,45,28,30.14,30.02,15,3,15,0.00